Ana Sayfa
METAR-TAF:

METAR-TAF

Havaalanları :

Ottawa, Kansas, Amerika Birleşik Devletleri

Enlem: 38-32-20N, Boylam: 095-15-10W, yükseklik: 295 m

Güncel hava durumu gözlemi

Rapor saat 20:55 UTC de 28 dakika önce yapıldı.
Rüzgar güney/güneydoğudan 9 kt
Sıcaklık 32°C
Nem 59%
Basınç 1023 hPa
Görüş mesafesi: 16.1 km
4800 ft yükseklikte az bulutlu
6000 ft yükseklikte parçalı bulutlu
7000 ft yükseklikte parçalı bulutlu

METAR: KOWI 202055Z AUTO 16009KT 10SM FEW048 SCT060 SCT070 32/23 A3020 RMK AO2 PWINO

Saat: 16:23 (21:23 UTC)


TAF: eksik

4.000'den fazla havaalanı için hava durumu gözlemleri ve tahminleri (METAR ve TAF raporları).

Kullanılabilir istasyonlar harita üzerinde sarı ve kırmızı noktalarla gösterilir.

İstasyonun adını görmek için fareyi noktanın üzerinde gezdirin.

Sonrasında hava gözlem ve tahminlerini görmek için tıklayın.

Haritayı değiştirmek için: yaklaştırmak için siyah artı işaretli yeşil düğmeye ve uzaklaştırmak için de eksi işaretli düğmeye hızla tıklayın; bitişik haritalar için yeşil okları kullanın.


METAR-TAF: